Time;durP1;ratioP1;P1;durP2;ratioP2;P2;SDS_P1;SDS_P2;PMS_P1;PMS_P2;Temp;Humidity;BMP_temperature;BMP_pressure;BME280_temperature;BME280_humidity;BME280_pressure;Samples;Min_cycle;Max_cycle;Signal;HPM_P1;HPM_P2
2022/04/26 03:37:05;;;;;;;41.53;22.77;;;;;;;7.71;100.00;101215.50;5060460;28;20028;-76
2022/04/26 03:39:34;;;;;;;39.90;23.05;;;;;;;7.65;100.00;101218.56;5045805;28;21046;-76
2022/04/26 03:42:02;;;;;;;39.88;21.25;;;;;;;7.63;100.00;101215.31;5060990;28;20036;-75
2022/04/26 03:44:28;;;;;;;43.40;22.30;;;;;;;7.64;100.00;101227.28;5042621;28;20032;-75
2022/04/26 03:46:53;;;;;;;40.70;20.90;;;;;;;7.63;100.00;101228.22;5061830;28;20178;-75
2022/04/26 03:49:20;;;;;;;37.75;19.60;;;;;;;7.63;100.00;101236.78;5045025;28;20394;-76
2022/04/26 03:51:45;;;;;;;38.40;18.58;;;;;;;7.58;100.00;101229.41;5048466;28;20079;-75
2022/04/26 03:54:11;;;;;;;35.60;17.42;;;;;;;7.64;100.00;101224.69;5062102;28;20037;-75
2022/04/26 03:56:36;;;;;;;31.92;16.45;;;;;;;7.71;100.00;101220.69;5064695;28;20036;-75
2022/04/26 03:59:02;;;;;;;28.58;14.95;;;;;;;7.59;100.00;101223.31;5059151;28;20029;-75
2022/04/26 04:01:27;;;;;;;24.90;14.40;;;;;;;7.46;100.00;101227.00;5044301;28;20058;-75
2022/04/26 04:03:53;;;;;;;29.02;14.02;;;;;;;7.40;100.00;101229.16;5026539;28;20027;-75
2022/04/26 04:06:18;;;;;;;25.92;13.23;;;;;;;7.36;99.88;101226.94;5061571;28;20082;-75
2022/04/26 04:08:44;;;;;;;26.10;13.13;;;;;;;7.38;99.69;101231.06;5048348;28;20051;-75
2022/04/26 04:11:09;;;;;;;30.38;13.45;;;;;;;7.28;99.65;101225.00;5044293;28;20037;-75
2022/04/26 04:13:34;;;;;;;29.50;13.88;;;;;;;7.33;100.00;101228.03;5063434;28;20012;-75
2022/04/26 04:16:00;;;;;;;22.88;12.23;;;;;;;7.30;99.94;101228.25;5063918;28;20589;-75
2022/04/26 04:21:11;;;;;;;23.08;11.98;;;;;;;7.33;99.95;101238.34;4985899;28;20037;-75
2022/04/26 04:23:40;;;;;;;19.95;10.55;;;;;;;7.31;98.94;101240.22;5049566;28;20024;-74
2022/04/26 04:26:06;;;;;;;22.65;11.70;;;;;;;7.29;97.92;101231.81;5029512;28;20036;-75
2022/04/26 04:28:32;;;;;;;24.50;10.30;;;;;;;7.22;97.11;101238.38;5044444;28;20044;-75
2022/04/26 04:30:58;;;;;;;22.13;11.27;;;;;;;7.25;97.67;101245.84;5060465;28;20017;-75
2022/04/26 04:33:24;;;;;;;23.05;10.68;;;;;;;7.22;98.05;101248.72;5041971;28;20077;-74
2022/04/26 04:35:49;;;;;;;16.67;10.38;;;;;;;7.16;97.28;101244.84;5042113;28;20040;-75
2022/04/26 04:38:15;;;;;;;22.95;10.65;;;;;;;7.07;97.10;101248.16;5040362;28;20036;-75
2022/04/26 04:40:40;;;;;;;29.42;11.48;;;;;;;7.07;97.50;101257.66;5044594;28;20033;-75
2022/04/26 04:43:05;;;;;;;19.70;10.57;;;;;;;7.02;97.40;101250.28;5060599;28;20044;-75
2022/04/26 04:45:31;;;;;;;22.05;11.18;;;;;;;7.01;97.92;101258.97;5043739;28;20032;-74
2022/04/26 04:47:56;;;;;;;18.02;10.80;;;;;;;7.01;97.49;101259.78;5058583;28;20036;-74
2022/04/26 04:50:22;;;;;;;20.08;11.18;;;;;;;7.03;98.22;101262.25;5064214;28;20035;-74
2022/04/26 04:52:48;;;;;;;20.08;10.90;;;;;;;6.96;97.96;101273.97;5041220;28;20113;-74
2022/04/26 04:55:14;;;;;;;22.05;9.70;;;;;;;6.96;98.09;101286.88;5053825;28;20040;-74
2022/04/26 04:57:40;;;;;;;19.17;10.18;;;;;;;6.96;97.21;101279.13;5041182;28;20115;-74
2022/04/26 05:00:08;;;;;;;20.65;10.30;;;;;;;6.97;97.52;101288.53;5059287;28;20031;-74
2022/04/26 05:02:33;;;;;;;20.05;9.73;;;;;;;6.99;97.50;101290.03;5062631;28;20032;-74
2022/04/26 05:05:00;;;;;;;18.73;10.93;;;;;;;6.99;97.39;101287.47;5062171;28;20032;-74
2022/04/26 05:07:26;;;;;;;20.55;10.07;;;;;;;6.99;96.82;101287.47;5042914;28;20040;-74
2022/04/26 05:09:52;;;;;;;18.33;10.07;;;;;;;6.97;96.33;101301.41;5060890;28;20039;-74
2022/04/26 05:12:19;;;;;;;19.70;10.57;;;;;;;6.98;96.39;101297.88;5058374;28;20557;-74
2022/04/26 05:14:44;;;;;;;25.00;11.88;;;;;;;6.93;96.91;101305.16;5055744;28;20481;-74
2022/04/26 05:17:10;;;;;;;23.65;10.75;;;;;;;6.96;97.52;101307.50;5043323;28;20036;-74
2022/04/26 05:19:35;;;;;;;21.75;11.10;;;;;;;6.99;97.61;101309.84;5043140;28;20389;-75
2022/04/26 05:22:10;;;;;;;22.77;10.82;;;;;;;7.02;97.14;101307.00;5059423;28;20059;-74
2022/04/26 05:24:58;;;;;;;21.05;10.85;;;;;;;7.11;96.95;101308.88;5061670;28;20024;-74
2022/04/26 05:27:29;;;;;;;20.92;10.60;;;;;;;6.93;96.15;101306.00;5037435;28;20086;-74
2022/04/26 05:29:56;;;;;;;18.83;10.80;;;;;;;6.94;96.53;101306.81;5042053;28;20115;-74
2022/04/26 05:32:28;;;;;;;20.73;11.27;;;;;;;6.95;96.60;101309.28;5042888;28;20181;-74
2022/04/26 05:34:56;;;;;;;24.08;10.95;;;;;;;6.96;96.97;101310.88;5038791;28;20025;-75
2022/04/26 05:37:22;;;;;;;21.30;11.25;;;;;;;7.04;97.55;101309.47;5040387;28;20032;-74
2022/04/26 05:39:47;;;;;;;23.02;11.63;;;;;;;7.13;97.02;101309.56;5040016;28;20362;-75
2022/04/26 05:42:13;;;;;;;21.42;10.43;;;;;;;7.11;96.87;101306.28;5060976;28;20217;-75
2022/04/26 05:44:39;;;;;;;22.80;11.15;;;;;;;7.11;96.51;101314.03;5042087;28;20085;-74
2022/04/26 05:47:07;;;;;;;20.95;10.70;;;;;;;7.13;96.11;101306.19;5042419;28;20032;-74
2022/04/26 05:49:34;;;;;;;19.98;9.93;;;;;;;7.15;95.75;101309.44;5039496;28;20064;-75
2022/04/26 05:52:00;;;;;;;19.60;11.40;;;;;;;7.08;95.76;101305.72;5060562;28;20038;-75
2022/04/26 05:54:25;;;;;;;21.95;11.93;;;;;;;7.04;95.81;101310.28;5056433;28;20072;-75
2022/04/26 05:56:54;;;;;;;22.67;11.75;;;;;;;7.08;95.91;101310.88;5025683;28;20032;-75
2022/04/26 05:59:20;;;;;;;24.45;11.98;;;;;;;7.10;96.27;101319.31;5038914;28;20032;-75
2022/04/26 06:01:46;;;;;;;21.05;11.32;;;;;;;7.06;96.95;101315.34;5042547;28;20041;-75
2022/04/26 06:04:12;;;;;;;26.10;13.45;;;;;;;7.07;96.32;101330.69;5041241;28;20085;-76
2022/04/26 06:06:38;;;;;;;26.02;12.45;;;;;;;7.01;95.04;101323.44;5056914;28;20044;-75
2022/04/26 06:09:04;;;;;;;24.52;12.25;;;;;;;6.93;95.81;101328.34;5039942;28;20036;-75
2022/04/26 06:11:30;;;;;;;26.73;13.02;;;;;;;6.92;95.80;101332.69;5040447;28;20027;-74
2022/04/26 06:13:56;;;;;;;24.15;11.60;;;;;;;6.99;95.40;101330.47;5040149;28;20074;-75
2022/04/26 06:16:21;;;;;;;20.58;11.93;;;;;;;6.99;95.40;101336.44;5059622;28;20032;-75
2022/04/26 06:18:47;;;;;;;23.85;12.82;;;;;;;6.98;95.27;101342.53;5040435;28;20032;-75
2022/04/26 06:21:12;;;;;;;24.95;12.35;;;;;;;6.97;95.51;101337.53;5051131;28;20438;-75
2022/04/26 06:23:39;;;;;;;36.72;15.23;;;;;;;6.92;95.86;101339.63;5057732;28;20025;-75
2022/04/26 06:26:05;;;;;;;27.38;13.73;;;;;;;6.91;95.78;101345.72;5018896;28;20363;-75
2022/04/26 06:28:30;;;;;;;25.48;12.82;;;;;;;6.99;95.93;101328.72;5042171;28;20032;-75
2022/04/26 06:30:56;;;;;;;24.10;12.48;;;;;;;6.96;96.09;101336.69;5042925;28;20385;-74
2022/04/26 06:33:21;;;;;;;29.50;14.57;;;;;;;6.98;96.23;101337.38;5040341;28;20021;-75
2022/04/26 06:35:47;;;;;;;28.75;13.32;;;;;;;7.07;96.92;101345.34;5042464;28;20025;-75
2022/04/26 06:38:12;;;;;;;24.67;12.23;;;;;;;7.07;96.24;101346.16;5040586;28;20481;-76
2022/04/26 06:40:38;;;;;;;28.85;13.30;;;;;;;7.02;96.52;101343.94;5041279;28;20546;-75
2022/04/26 06:43:03;;;;;;;46.90;22.92;;;;;;;7.15;96.84;101351.53;5056307;28;20300;-75
2022/04/26 06:45:29;;;;;;;33.53;16.05;;;;;;;7.19;96.52;101355.50;5042122;28;20032;-75
2022/04/26 06:47:55;;;;;;;28.15;13.40;;;;;;;7.28;96.33;101348.00;5040988;28;20051;-75
2022/04/26 06:50:21;;;;;;;27.38;13.13;;;;;;;7.31;96.90;101348.59;5060730;28;20032;-75
2022/04/26 06:52:47;;;;;;;28.25;13.40;;;;;;;7.38;95.69;101360.06;5057960;28;20037;-75
2022/04/26 06:55:12;;;;;;;27.50;13.70;;;;;;;7.35;95.64;101352.56;5037847;28;20055;-75
2022/04/26 06:57:38;;;;;;;28.27;14.25;;;;;;;7.46;95.65;101356.03;5058044;28;20033;-74
2022/04/26 07:00:09;;;;;;;28.00;14.93;;;;;;;7.49;96.70;101355.81;5040475;28;20044;-75
2022/04/26 07:02:35;;;;;;;23.70;13.45;;;;;;;7.56;95.86;101360.34;5024750;28;20071;-75
2022/04/26 07:05:00;;;;;;;38.10;16.38;;;;;;;7.58;95.78;101361.03;5026771;28;20560;-74
2022/04/26 07:07:26;;;;;;;22.55;13.25;;;;;;;7.67;94.58;101363.84;5061343;28;20039;-75
2022/04/26 07:09:51;;;;;;;22.67;13.50;;;;;;;7.70;94.96;101354.06;5029614;28;20256;-74
2022/04/26 07:12:17;;;;;;;26.23;14.18;;;;;;;7.66;94.27;101365.59;5044009;28;20493;-75
2022/04/26 07:14:42;;;;;;;27.73;14.45;;;;;;;7.68;93.33;101362.88;5044710;28;20032;-75
2022/04/26 07:17:08;;;;;;;27.15;14.25;;;;;;;7.59;93.24;101365.28;5041279;28;20033;-74
2022/04/26 07:19:37;;;;;;;29.35;16.25;;;;;;;7.73;94.11;101365.94;5061563;28;20036;-74
2022/04/26 07:22:03;;;;;;;33.75;17.08;;;;;;;7.70;94.86;101373.91;5061897;28;20028;-74
2022/04/26 07:24:33;;;;;;;35.25;16.70;;;;;;;7.83;94.28;101371.16;5062094;28;20033;-74
2022/04/26 07:26:58;;;;;;;33.40;17.38;;;;;;;7.90;94.07;101365.38;5061167;28;20089;-75
2022/04/26 07:29:24;;;;;;;26.75;16.63;;;;;;;7.94;94.51;101365.94;5061842;28;20081;-75
2022/04/26 07:31:49;;;;;;;31.70;17.75;;;;;;;8.05;95.11;101373.66;5047004;28;20060;-75
2022/04/26 07:34:20;;;;;;;40.17;18.42;;;;;;;8.12;94.54;101379.13;5043160;28;20090;-75
2022/04/26 07:36:47;;;;;;;35.53;18.50;;;;;;;8.13;94.39;101381.56;5059111;28;20055;-74
2022/04/26 07:39:14;;;;;;;34.78;19.23;;;;;;;8.12;94.58;101384.31;5057568;28;20036;-75
2022/04/26 07:41:40;;;;;;;40.72;20.00;;;;;;;8.10;93.23;101381.84;5043120;28;20043;-75
2022/04/26 07:44:05;;;;;;;34.83;19.38;;;;;;;8.07;92.88;101383.84;5061568;28;20028;-75
2022/04/26 07:46:31;;;;;;;35.15;20.50;;;;;;;8.16;94.36;101393.44;5045653;28;20025;-74
2022/04/26 07:48:57;;;;;;;32.83;21.55;;;;;;;8.19;93.53;101386.25;5044458;28;20100;-74
2022/04/26 07:51:22;;;;;;;40.45;19.40;;;;;;;8.19;93.05;101388.00;5040013;28;20052;-75
2022/04/26 07:53:48;;;;;;;41.90;22.95;;;;;;;8.34;93.50;101388.50;5060566;28;20025;-74
2022/04/26 07:56:13;;;;;;;40.17;22.45;;;;;;;8.30;92.99;101387.94;5061766;28;20569;-74
2022/04/26 07:58:39;;;;;;;37.70;21.30;;;;;;;8.35;93.31;101401.31;5065483;28;20468;-75
2022/04/26 08:01:04;;;;;;;42.08;23.20;;;;;;;8.39;92.77;101397.50;5061526;28;20024;-75
2022/04/26 08:03:32;;;;;;;44.22;24.42;;;;;;;8.45;92.11;101398.00;5066532;28;20032;-74
2022/04/26 08:05:58;;;;;;;47.13;21.58;;;;;;;8.48;91.92;101395.97;5044114;28;20576;-74
2022/04/26 08:08:23;;;;;;;39.83;20.55;;;;;;;8.71;92.52;101396.63;5060134;28;20037;-74
2022/04/26 08:10:49;;;;;;;34.33;19.75;;;;;;;8.76;91.03;101404.00;5043329;28;20041;-74
2022/04/26 08:13:15;;;;;;;35.38;20.73;;;;;;;8.77;91.25;101408.22;5044586;28;20024;-74
2022/04/26 08:15:40;;;;;;;37.50;20.52;;;;;;;8.95;92.10;101403.28;5043003;28;20083;-74
2022/04/26 08:18:06;;;;;;;39.97;22.70;;;;;;;8.99;92.20;101414.19;5057229;28;20109;-74
2022/04/26 08:20:33;;;;;;;35.20;20.58;;;;;;;9.11;90.53;101423.47;5043511;28;20559;-74
2022/04/26 08:22:58;;;;;;;42.45;22.08;;;;;;;9.00;90.88;101423.56;5046080;28;20024;-74
2022/04/26 08:28:08;;;;;;;38.40;22.90;;;;;;;9.40;88.53;101420.13;5057904;28;20250;-74
2022/04/26 08:30:34;;;;;;;51.53;24.13;;;;;;;9.67;88.14;101422.09;5042896;28;20539;-75
2022/04/26 08:32:59;;;;;;;45.83;23.67;;;;;;;9.83;87.91;101421.56;5042353;28;20559;-74
2022/04/26 08:35:27;;;;;;;47.97;24.52;;;;;;;9.46;87.59;101423.03;5045714;28;20089;-74
2022/04/26 08:37:53;;;;;;;42.58;23.88;;;;;;;9.35;87.46;101425.72;5060792;28;20033;-74
2022/04/26 08:40:19;;;;;;;48.15;24.38;;;;;;;9.54;87.68;101428.34;5046109;28;20020;-75
2022/04/26 08:42:47;;;;;;;45.30;24.80;;;;;;;9.55;88.99;101424.00;5057238;28;20055;-74
2022/04/26 08:45:17;;;;;;;46.08;26.05;;;;;;;9.49;88.29;101432.28;5045704;28;20063;-75
2022/04/26 08:53:17;;;;;;;50.97;25.35;;;;;;;9.69;88.01;101439.13;5045704;28;20037;-74
2022/04/26 08:55:51;;;;;;;44.17;25.27;;;;;;;9.96;87.12;101436.84;5045226;28;20121;-75
2022/04/26 08:58:18;;;;;;;47.05;23.98;;;;;;;9.90;85.87;101436.41;5062079;28;20090;-74
2022/04/26 09:01:05;;;;;;;45.35;24.77;;;;;;;10.10;85.80;101439.03;5062720;28;20056;-74
2022/04/26 09:03:32;;;;;;;40.53;23.55;;;;;;;10.51;85.33;101434.50;5043314;28;20348;-74
2022/04/26 09:06:13;;;;;;;40.05;22.27;;;;;;;10.79;84.90;101429.34;5060503;28;20260;-75
2022/04/26 09:08:43;;;;;;;43.60;22.17;;;;;;;10.52;83.06;101423.97;5038376;28;20036;-74
2022/04/26 09:11:27;;;;;;;37.65;20.95;;;;;;;10.29;83.98;101438.19;5042399;28;20047;-74
2022/04/26 09:13:54;;;;;;;41.22;20.77;;;;;;;10.14;84.41;101433.41;5025579;28;20033;-74
2022/04/26 09:16:22;;;;;;;33.65;19.95;;;;;;;10.17;84.89;101447.91;5045778;28;20095;-75
2022/04/26 09:18:58;;;;;;;31.73;18.92;;;;;;;10.03;85.17;101450.88;5060880;28;20025;-74
2022/04/26 09:21:28;;;;;;;33.60;19.73;;;;;;;10.18;85.71;101453.88;5057555;28;20779;-74
2022/04/26 09:24:01;;;;;;;32.13;19.08;;;;;;;10.20;84.70;101457.16;5061476;28;20060;-74
2022/04/26 09:26:40;;;;;;;36.78;18.75;;;;;;;10.42;84.17;101458.69;5058132;28;20036;-74
2022/04/26 09:29:07;;;;;;;34.47;19.40;;;;;;;10.37;82.92;101456.47;5058130;28;20036;-75
2022/04/26 09:31:37;;;;;;;32.85;19.50;;;;;;;10.56;82.84;101455.63;5055836;28;20051;-74
2022/04/26 09:34:10;;;;;;;39.78;20.13;;;;;;;10.63;83.86;101458.50;5023000;28;20032;-74
2022/04/26 09:36:47;;;;;;;31.17;18.73;;;;;;;10.78;82.34;101462.28;5037331;28;20545;-75
2022/04/26 09:39:20;;;;;;;34.65;18.25;;;;;;;10.79;82.63;101460.50;5057505;28;20124;-74
2022/04/26 09:41:50;;;;;;;31.98;18.02;;;;;;;10.80;83.56;101464.72;5042169;28;20926;-75
2022/04/26 09:44:16;;;;;;;27.83;17.33;;;;;;;10.90;82.15;101468.09;5042208;28;20339;-75
2022/04/26 09:46:47;;;;;;;26.88;17.10;;;;;;;10.79;80.60;101476.06;5059667;28;20054;-74
2022/04/26 09:49:15;;;;;;;30.52;17.20;;;;;;;10.75;82.59;101483.28;5040722;28;20042;-74
2022/04/26 09:51:41;;;;;;;31.63;18.05;;;;;;;10.73;80.19;101485.22;5042506;28;20031;-75
2022/04/26 09:54:07;;;;;;;30.40;16.67;;;;;;;10.62;79.89;101488.78;5041877;28;20035;-75
2022/04/26 09:56:33;;;;;;;25.90;16.55;;;;;;;10.64;79.90;101488.66;5041037;28;20028;-75
2022/04/26 09:59:01;;;;;;;26.92;17.42;;;;;;;10.71;80.87;101487.13;5042094;28;20040;-75
2022/04/26 10:01:30;;;;;;;28.50;17.02;;;;;;;10.88;80.00;101494.19;5056668;28;20501;-75
2022/04/26 10:04:02;;;;;;;31.45;17.08;;;;;;;11.03;81.52;101489.34;5055299;28;20063;-75
2022/04/26 10:06:36;;;;;;;29.75;17.90;;;;;;;11.04;80.94;101498.78;5041138;28;20037;-75
2022/04/26 10:09:06;;;;;;;26.45;16.05;;;;;;;10.97;80.81;101496.91;5024676;28;20099;-76
2022/04/26 10:11:32;;;;;;;27.33;16.10;;;;;;;11.04;79.21;101501.38;5035756;28;20033;-75
2022/04/26 10:13:59;;;;;;;30.90;16.13;;;;;;;10.96;78.96;101503.84;5039297;28;20032;-75
2022/04/26 10:16:26;;;;;;;27.90;15.95;;;;;;;10.91;78.89;101504.28;5040435;28;20058;-75
2022/04/26 10:19:01;;;;;;;25.45;15.07;;;;;;;10.82;81.53;101505.13;5054397;28;20043;-75
2022/04/26 10:21:26;;;;;;;31.67;17.00;;;;;;;10.92;82.08;101505.09;5024201;28;20063;-75
2022/04/26 10:23:51;;;;;;;28.20;16.75;;;;;;;10.99;80.84;101501.00;5056725;28;20641;-74
2022/04/26 10:26:23;;;;;;;23.63;16.75;;;;;;;11.07;79.85;101508.06;5056901;28;20098;-75
2022/04/26 10:28:59;;;;;;;30.00;16.60;;;;;;;11.32;80.61;101514.41;5055955;28;20036;-75
2022/04/26 10:31:38;;;;;;;25.60;16.20;;;;;;;11.22;80.84;101509.22;5060341;28;20052;-75
2022/04/26 10:34:29;;;;;;;24.45;16.02;;;;;;;11.10;80.99;101512.97;5041480;28;20040;-75
2022/04/26 10:37:00;;;;;;;31.88;16.83;;;;;;;11.24;80.69;101519.47;5060174;28;20047;-75
2022/04/26 10:39:30;;;;;;;27.08;15.57;;;;;;;11.19;81.08;101519.06;5045705;28;20058;-75
2022/04/26 10:41:56;;;;;;;24.08;15.30;;;;;;;11.35;79.52;101521.09;5039930;28;20039;-75
2022/04/26 10:44:37;;;;;;;26.20;15.57;;;;;;;11.39;79.59;101523.22;5060596;28;20481;-75
2022/04/26 10:47:02;;;;;;;26.92;16.25;;;;;;;11.54;80.11;101520.97;5032789;28;20383;-76
2022/04/26 10:49:40;;;;;;;28.75;15.48;;;;;;;11.72;79.23;101525.41;5044860;28;20033;-75
2022/04/26 10:52:14;;;;;;;26.63;15.90;;;;;;;11.75;78.59;101532.91;5057959;28;20044;-76
2022/04/26 10:54:45;;;;;;;28.85;16.88;;;;;;;11.79;76.69;101532.47;5060001;28;20036;-75
2022/04/26 10:57:15;;;;;;;32.92;17.95;;;;;;;12.02;75.91;101526.91;5047010;28;20087;-74
2022/04/26 10:59:45;;;;;;;24.92;16.98;;;;;;;12.13;74.20;101526.69;5063410;28;20115;-75
2022/04/26 11:02:15;;;;;;;25.08;16.40;;;;;;;11.97;73.16;101529.94;5038615;28;20082;-75
2022/04/26 11:04:41;;;;;;;26.50;15.88;;;;;;;12.21;73.46;101531.94;5045430;28;20032;-75
2022/04/26 11:07:21;;;;;;;31.45;16.33;;;;;;;12.40;73.66;101532.75;5042231;28;20047;-75
2022/04/26 11:09:50;;;;;;;27.67;15.05;;;;;;;12.33;73.23;101532.53;5053962;28;20461;-76
2022/04/26 11:12:17;;;;;;;24.92;14.65;;;;;;;12.22;73.39;101532.75;5059883;28;20485;-75
2022/04/26 11:14:43;;;;;;;25.45;16.05;;;;;;;12.27;74.82;101528.75;5046117;28;20493;-75
2022/04/26 11:17:09;;;;;;;33.17;15.43;;;;;;;12.15;73.78;101527.34;5041357;28;20043;-75
2022/04/26 11:19:36;;;;;;;28.95;14.73;;;;;;;12.08;73.40;101539.28;5049436;28;20032;-75
2022/04/26 11:22:13;;;;;;;23.55;13.93;;;;;;;12.28;73.50;101532.16;5059556;28;20033;-75
2022/04/26 11:30:09;;;;;;;25.05;15.98;;;;;;;12.50;74.03;101530.88;5045156;28;20520;-75
2022/04/26 11:32:38;;;;;;;22.15;13.45;;;;;;;12.62;72.83;101534.03;5062052;28;20035;-75
2022/04/26 11:35:04;;;;;;;19.73;13.05;;;;;;;12.97;69.15;101542.75;5056252;28;20029;-74
2022/04/26 11:37:30;;;;;;;21.40;13.35;;;;;;;12.91;71.05;101536.38;5058923;28;20482;-75
2022/04/26 11:39:56;;;;;;;20.45;13.32;;;;;;;13.20;69.50;101541.28;5041021;28;21527;-75
2022/04/26 11:42:21;;;;;;;21.17;12.85;;;;;;;13.31;69.46;101542.00;5047370;28;20062;-74
2022/04/26 11:45:00;;;;;;;22.33;13.00;;;;;;;13.57;68.88;101542.75;5066404;28;20024;-75
2022/04/26 11:47:48;;;;;;;23.25;12.82;;;;;;;13.54;68.11;101555.25;5060113;28;20051;-75
2022/04/26 11:50:21;;;;;;;21.42;13.23;;;;;;;13.51;68.23;101548.59;5028093;28;20326;-75
2022/04/26 11:52:48;;;;;;;22.73;12.50;;;;;;;13.77;67.69;101555.53;5046364;28;20036;-74
2022/04/26 11:55:28;;;;;;;15.95;11.45;;;;;;;13.99;66.59;101551.50;5046687;28;20044;-75
2022/04/26 11:58:05;;;;;;;23.80;13.23;;;;;;;13.96;66.51;101552.63;5060392;28;20040;-76
2022/04/26 12:00:31;;;;;;;37.25;19.67;;;;;;;14.09;66.75;101548.72;5059937;28;20036;-75
2022/04/26 12:02:57;;;;;;;23.50;12.50;;;;;;;14.26;67.08;101552.19;5059272;28;20539;-74
2022/04/26 12:05:23;;;;;;;24.35;12.02;;;;;;;14.35;64.88;101548.59;5064197;28;20745;-75
2022/04/26 12:07:50;;;;;;;16.83;11.15;;;;;;;14.45;62.79;101536.22;5061831;28;20039;-74
2022/04/26 12:10:33;;;;;;;19.75;12.45;;;;;;;14.63;67.55;101548.31;5055837;28;20067;-74
2022/04/26 12:13:05;;;;;;;16.17;10.83;;;;;;;14.25;63.31;101545.34;5061562;28;20029;-75
2022/04/26 12:15:35;;;;;;;21.92;11.65;;;;;;;14.06;66.02;101547.28;5043784;28;20478;-75
2022/04/26 12:18:02;;;;;;;20.00;11.48;;;;;;;14.55;65.11;101547.28;5056793;28;21743;-75
2022/04/26 12:20:28;;;;;;;19.90;10.75;;;;;;;14.65;64.11;101539.31;5045449;28;20028;-74
2022/04/26 12:22:53;;;;;;;21.70;10.55;;;;;;;14.83;62.52;101527.91;5055651;28;20040;-75
2022/04/26 12:25:19;;;;;;;18.23;11.63;;;;;;;14.66;62.65;101532.31;5058514;28;20029;-74
2022/04/26 12:27:45;;;;;;;19.02;11.63;;;;;;;14.55;61.77;101531.63;5026883;28;20028;-74
2022/04/26 12:30:10;;;;;;;17.77;10.63;;;;;;;14.75;62.12;101532.16;5020402;28;20741;-75
2022/04/26 12:32:41;;;;;;;15.60;10.13;;;;;;;14.83;60.53;101531.31;5037164;28;20032;-75
2022/04/26 12:35:09;;;;;;;17.13;11.48;;;;;;;15.02;61.10;101539.78;5037748;28;20041;-74
2022/04/26 12:37:34;;;;;;;15.80;10.65;;;;;;;14.75;60.40;101542.59;5026120;28;20032;-75
2022/04/26 12:40:09;;;;;;;15.48;10.60;;;;;;;14.50;62.23;101543.53;5057180;28;20041;-75
2022/04/26 12:42:38;;;;;;;18.80;10.43;;;;;;;14.68;62.91;101541.63;5055040;28;20409;-76
2022/04/26 12:45:06;;;;;;;15.15;10.15;;;;;;;15.03;61.68;101537.00;5042578;28;20040;-75
2022/04/26 12:50:28;;;;;;;18.88;10.07;;;;;;;15.44;60.57;101536.81;5057561;28;20032;-75
2022/04/26 12:53:04;;;;;;;17.02;10.48;;;;;;;15.47;61.74;101539.13;5026757;28;20028;-75
2022/04/26 12:55:36;;;;;;;16.27;9.43;;;;;;;15.33;60.08;101535.44;5044225;28;20486;-76
2022/04/26 12:58:08;;;;;;;15.82;10.10;;;;;;;15.27;61.61;101525.63;5054878;28;20036;-74
2022/04/26 13:00:42;;;;;;;12.65;8.98;;;;;;;15.23;61.42;101532.19;5040336;28;20040;-75
2022/04/26 13:03:10;;;;;;;14.23;9.55;;;;;;;15.50;61.30;101519.66;5042794;28;20055;-75
2022/04/26 13:06:03;;;;;;;20.95;10.63;;;;;;;15.17;59.91;101532.88;5063599;28;20428;-75
2022/04/26 13:08:28;;;;;;;16.13;9.80;;;;;;;14.95;59.46;101531.78;5059696;28;20036;-75
2022/04/26 13:10:55;;;;;;;15.27;9.15;;;;;;;14.96;59.29;101530.81;5041003;28;20039;-75
2022/04/26 13:13:20;;;;;;;15.55;9.52;;;;;;;15.20;59.78;101545.59;5043965;28;20117;-75
2022/04/26 13:15:46;;;;;;;18.13;10.30;;;;;;;14.96;59.18;101539.44;5026161;28;20036;-75
2022/04/26 13:18:15;;;;;;;14.85;10.38;;;;;;;14.85;57.89;101529.34;5039623;28;20064;-75
2022/04/26 13:20:42;;;;;;;13.63;9.80;;;;;;;15.29;59.41;101531.50;5056992;28;20045;-76
2022/04/26 13:23:08;;;;;;;18.17;8.63;;;;;;;15.73;60.36;101532.78;5024697;28;20140;-75
2022/04/26 13:25:33;;;;;;;17.10;9.93;;;;;;;15.56;57.55;101537.28;5044790;28;20036;-75
2022/04/26 13:27:59;;;;;;;13.38;9.63;;;;;;;15.33;56.52;101532.81;5059832;28;20028;-75
2022/04/26 13:30:24;;;;;;;14.45;9.02;;;;;;;15.13;57.34;101540.22;5061288;28;20424;-76
2022/04/26 13:32:52;;;;;;;17.15;10.35;;;;;;;14.91;56.53;101546.94;5043389;28;20032;-75
2022/04/26 13:35:18;;;;;;;22.25;8.50;;;;;;;15.04;56.21;101551.66;5059995;28;20078;-76
2022/04/26 13:37:43;;;;;;;13.60;9.38;;;;;;;15.22;56.84;101543.63;5040553;28;20669;-76
2022/04/26 13:40:09;;;;;;;13.88;8.75;;;;;;;15.49;55.61;101537.13;5041243;28;20028;-75
2022/04/26 13:42:35;;;;;;;13.10;8.93;;;;;;;15.69;55.68;101527.09;5041381;28;20032;-75
2022/04/26 13:45:01;;;;;;;15.35;8.52;;;;;;;16.10;57.76;101545.16;5045097;28;20427;-75
2022/04/26 13:47:27;;;;;;;16.13;8.60;;;;;;;16.01;53.17;101538.38;5045670;28;20044;-75
2022/04/26 13:49:53;;;;;;;27.65;9.63;;;;;;;15.99;56.56;101532.47;5057104;28;20040;-75
2022/04/26 13:52:20;;;;;;;14.25;9.02;;;;;;;15.84;55.35;101535.03;5030102;28;20807;-75
2022/04/26 13:54:46;;;;;;;14.55;8.80;;;;;;;15.98;55.94;101538.69;5039897;28;20033;-75
2022/04/26 13:57:11;;;;;;;16.33;8.98;;;;;;;15.80;55.24;101543.38;5035846;28;20794;-76
2022/04/26 13:59:37;;;;;;;15.60;8.80;;;;;;;15.87;55.42;101541.72;5040504;28;20520;-76
2022/04/26 14:02:04;;;;;;;20.85;8.18;;;;;;;15.84;52.99;101542.06;5040968;28;20037;-75
2022/04/26 14:04:30;;;;;;;13.98;8.02;;;;;;;15.62;53.18;101533.19;5025006;28;20501;-76
2022/04/26 14:06:55;;;;;;;13.75;8.15;;;;;;;15.83;53.00;101533.41;5038865;28;20040;-75
2022/04/26 14:09:22;;;;;;;13.88;8.68;;;;;;;15.85;54.98;101538.47;5056742;28;20033;-76
2022/04/26 14:11:48;;;;;;;12.60;7.60;;;;;;;15.96;53.25;101532.84;5062687;28;20041;-76
2022/04/26 14:22:31;;;;;;;11.38;7.85;;;;;;;15.87;53.91;101539.91;5064338;28;21782;-76
2022/04/26 14:25:05;;;;;;;12.10;7.65;;;;;;;16.04;55.17;101539.81;5029619;28;20032;-76
2022/04/26 14:27:31;;;;;;;11.02;7.57;;;;;;;16.03;54.51;101539.00;5032393;28;20119;-75
2022/04/26 14:29:57;;;;;;;12.10;7.13;;;;;;;16.31;53.48;101543.69;5062844;28;20033;-76
2022/04/26 14:32:23;;;;;;;11.90;6.75;;;;;;;16.40;52.96;101537.41;5032024;28;20405;-75
2022/04/26 14:34:49;;;;;;;9.25;6.35;;;;;;;16.39;51.19;101551.50;5043789;28;20035;-75
2022/04/26 14:37:17;;;;;;;11.05;6.22;;;;;;;16.32;52.49;101540.91;5044253;28;20040;-75
2022/04/26 14:39:43;;;;;;;12.38;7.20;;;;;;;15.95;50.67;101546.88;5043425;28;20516;-75
2022/04/26 14:42:09;;;;;;;10.90;6.63;;;;;;;16.08;54.12;101546.31;5046341;28;20029;-75
2022/04/26 14:44:36;;;;;;;11.18;6.50;;;;;;;16.41;52.26;101541.66;5047135;28;20035;-75
2022/04/26 14:47:04;;;;;;;10.40;6.63;;;;;;;16.63;54.04;101547.84;5059790;28;20043;-76
2022/04/26 14:49:36;;;;;;;9.57;6.20;;;;;;;16.07;52.30;101549.94;5050235;28;20020;-76
2022/04/26 14:52:02;;;;;;;16.35;9.23;;;;;;;16.06;52.93;101546.47;5065783;28;20473;-76
2022/04/26 14:54:28;;;;;;;8.80;6.72;;;;;;;16.02;53.75;101545.22;5066020;28;20032;-76
2022/04/26 14:56:54;;;;;;;13.55;6.60;;;;;;;15.85;51.44;101547.13;5046493;28;20028;-76
2022/04/26 14:59:22;;;;;;;12.00;6.10;;;;;;;15.66;52.17;101550.94;5064643;28;20041;-76
2022/04/26 15:01:49;;;;;;;8.43;6.00;;;;;;;15.89;52.82;101551.00;5031493;28;20281;-75
2022/04/26 15:04:22;;;;;;;11.98;6.75;;;;;;;16.04;52.75;101551.09;5064940;28;20109;-75
2022/04/26 15:06:47;;;;;;;;;;;;;;;16.09;53.67;101551.38;5064789;28;20037;-75
2022/04/26 15:17:28;;;;;;;9.45;5.72;;;;;;;15.29;53.32;101544.56;5044276;28;20103;-76
2022/04/26 15:19:54;;;;;;;11.15;5.60;;;;;;;15.26;54.35;101551.94;5031004;28;20067;-76
2022/04/26 15:22:20;;;;;;;9.98;5.95;;;;;;;15.40;52.37;101558.25;5061852;28;20036;-75
2022/04/26 15:24:46;;;;;;;9.73;5.60;;;;;;;15.27;52.62;101556.16;5062566;28;20124;-75
2022/04/26 15:27:14;;;;;;;11.05;5.65;;;;;;;15.33;52.72;101558.09;5048275;28;20501;-76
2022/04/26 15:29:40;;;;;;;10.95;5.68;;;;;;;15.33;53.55;101568.56;5026056;28;20461;-76